createdAt,value
2022-10-13T00:00:50.949Z,16.02
2022-10-13T00:03:18.009Z,16.00
2022-10-13T00:05:48.124Z,16.00
2022-10-13T00:08:19.910Z,15.98
2022-10-13T00:10:48.837Z,15.96
2022-10-13T00:13:16.535Z,15.95
2022-10-13T00:15:46.264Z,15.92
2022-10-13T00:18:13.508Z,15.89
2022-10-13T00:20:49.163Z,15.86
2022-10-13T00:23:16.682Z,15.85
2022-10-13T00:25:45.777Z,15.83
2022-10-13T00:28:13.693Z,15.81
2022-10-13T00:30:41.307Z,15.82
2022-10-13T00:33:08.542Z,15.81
2022-10-13T00:35:41.241Z,15.79
2022-10-13T00:38:08.322Z,15.79
2022-10-13T00:40:42.662Z,15.80
2022-10-13T00:43:48.505Z,15.81
2022-10-13T00:46:16.306Z,15.81
2022-10-13T00:48:44.555Z,15.81
2022-10-13T00:51:14.875Z,15.81
2022-10-13T00:53:44.208Z,15.80
2022-10-13T00:56:14.197Z,15.79
2022-10-13T00:58:41.682Z,15.78
2022-10-13T01:01:08.849Z,15.77
2022-10-13T01:03:36.659Z,15.77
2022-10-13T01:06:05.933Z,15.78
2022-10-13T01:08:33.806Z,15.77
2022-10-13T01:11:36.384Z,15.77
2022-10-13T01:14:27.002Z,15.76
2022-10-13T01:16:56.709Z,15.76
2022-10-13T01:19:52.455Z,15.75
2022-10-13T01:22:37.255Z,15.74
2022-10-13T01:25:17.781Z,15.74
2022-10-13T01:28:02.671Z,15.74
2022-10-13T01:30:36.590Z,15.74
2022-10-13T01:33:12.357Z,15.73
2022-10-13T01:35:42.071Z,15.73
2022-10-13T01:38:33.696Z,15.72
2022-10-13T01:41:33.944Z,15.72
2022-10-13T01:44:16.517Z,15.70
2022-10-13T01:46:46.030Z,15.70
2022-10-13T01:49:16.738Z,15.70
2022-10-13T01:51:45.718Z,15.68
2022-10-13T01:54:12.500Z,15.67
2022-10-13T01:56:39.256Z,15.67
2022-10-13T01:59:15.079Z,15.67
2022-10-13T02:02:15.657Z,15.66
2022-10-13T02:05:03.242Z,15.65
2022-10-13T02:07:49.739Z,15.65
2022-10-13T02:10:34.583Z,15.66
2022-10-13T02:13:06.233Z,15.65
2022-10-13T02:15:42.714Z,15.65
2022-10-13T02:18:13.146Z,15.65
2022-10-13T02:20:42.473Z,15.67
2022-10-13T02:23:13.030Z,15.67
2022-10-13T02:25:40.920Z,15.68
2022-10-13T02:28:09.462Z,15.67
2022-10-13T02:30:39.571Z,15.68
2022-10-13T02:33:06.720Z,15.68
2022-10-13T02:35:34.413Z,15.68
2022-10-13T02:38:01.232Z,15.68
2022-10-13T02:40:28.795Z,15.68
2022-10-13T02:42:55.582Z,15.68
2022-10-13T02:45:22.599Z,15.68
2022-10-13T02:47:49.474Z,15.68
2022-10-13T02:50:16.303Z,15.68
2022-10-13T02:52:43.065Z,15.67
2022-10-13T02:55:10.225Z,15.64
2022-10-13T02:57:37.100Z,15.64
2022-10-13T03:00:05.935Z,15.62
2022-10-13T03:02:32.958Z,15.62
2022-10-13T03:04:59.773Z,15.60
2022-10-13T03:07:26.511Z,15.60
2022-10-13T03:09:53.314Z,15.59
2022-10-13T03:12:20.277Z,15.60
2022-10-13T03:14:47.139Z,15.60
2022-10-13T03:17:14.035Z,15.61
2022-10-13T03:19:40.926Z,15.62
2022-10-13T03:22:07.727Z,15.62
2022-10-13T03:24:34.459Z,15.63
2022-10-13T03:27:01.238Z,15.64
2022-10-13T03:29:28.049Z,15.65
2022-10-13T03:31:54.777Z,15.65
2022-10-13T03:34:21.522Z,15.65
2022-10-13T03:36:48.216Z,15.64
2022-10-13T03:39:15.155Z,15.64
2022-10-13T03:41:42.245Z,15.61
2022-10-13T03:44:12.673Z,15.59
2022-10-13T03:46:40.078Z,15.57
2022-10-13T03:49:11.542Z,15.56
2022-10-13T03:51:38.902Z,15.56
2022-10-13T03:54:05.742Z,15.56
2022-10-13T03:56:32.507Z,15.57
2022-10-13T03:59:07.562Z,15.57
2022-10-13T04:01:34.430Z,15.58
2022-10-13T04:04:02.951Z,15.57
2022-10-13T04:06:31.244Z,15.58
2022-10-13T04:09:06.613Z,15.57
2022-10-13T04:11:33.758Z,15.55
2022-10-13T04:14:00.572Z,15.54
2022-10-13T04:16:29.734Z,15.55
2022-10-13T04:19:11.895Z,15.53
2022-10-13T04:21:39.401Z,15.52
2022-10-13T04:24:12.301Z,15.52
2022-10-13T04:26:39.324Z,15.52
2022-10-13T04:29:13.289Z,15.49
2022-10-13T04:31:42.877Z,15.48
2022-10-13T04:34:10.388Z,15.47
2022-10-13T04:36:37.256Z,15.46
2022-10-13T04:39:07.358Z,15.46
2022-10-13T04:41:34.148Z,15.45
2022-10-13T04:44:02.698Z,15.45
2022-10-13T04:46:30.010Z,15.43
2022-10-13T04:48:57.479Z,15.44
2022-10-13T04:51:25.976Z,15.43
2022-10-13T04:54:01.277Z,15.43
2022-10-13T04:56:28.963Z,15.43
2022-10-13T04:58:55.704Z,15.41
2022-10-13T05:01:24.536Z,15.40
2022-10-13T05:04:02.274Z,15.40
2022-10-13T05:06:53.390Z,15.39
2022-10-13T05:09:24.593Z,15.40
2022-10-13T05:11:51.342Z,15.41
2022-10-13T05:14:18.108Z,15.43
2022-10-13T05:16:44.889Z,15.46
2022-10-13T05:19:11.658Z,15.46
2022-10-13T05:21:39.289Z,15.46
2022-10-13T05:24:06.693Z,15.43
2022-10-13T05:26:35.920Z,15.45
2022-10-13T05:29:13.083Z,15.44
2022-10-13T05:31:40.488Z,15.47
2022-10-13T05:34:07.211Z,15.48
2022-10-13T05:36:35.321Z,15.46
2022-10-13T05:39:08.562Z,15.48
2022-10-13T05:41:35.334Z,15.47
2022-10-13T05:44:04.669Z,15.48
2022-10-13T05:46:31.583Z,15.49
2022-10-13T05:48:59.015Z,15.50
2022-10-13T05:51:36.956Z,15.52
2022-10-13T05:54:11.470Z,15.53
2022-10-13T05:56:42.347Z,15.53
2022-10-13T05:59:17.117Z,15.53
2022-10-13T06:01:44.420Z,15.54
2022-10-13T06:04:23.868Z,15.54
2022-10-13T06:06:50.908Z,15.56
2022-10-13T06:09:18.393Z,15.58
2022-10-13T06:11:45.248Z,15.57
2022-10-13T06:14:12.039Z,15.60
2022-10-13T06:16:38.923Z,15.60
2022-10-13T06:19:12.306Z,15.60
2022-10-13T06:21:39.133Z,15.61
2022-10-13T06:24:06.079Z,15.60
2022-10-13T06:26:32.982Z,15.60
2022-10-13T06:29:08.089Z,15.60
2022-10-13T06:31:34.870Z,15.60
2022-10-13T06:34:01.688Z,15.60
2022-10-13T06:36:28.478Z,15.59
2022-10-13T06:38:55.418Z,15.60
2022-10-13T06:41:22.253Z,15.58
2022-10-13T06:43:49.057Z,15.57
2022-10-13T06:46:15.860Z,15.56
2022-10-13T06:48:43.201Z,15.56
2022-10-13T06:51:11.816Z,15.55
2022-10-13T06:53:38.831Z,15.56
2022-10-13T06:56:07.826Z,15.54
2022-10-13T06:58:36.002Z,15.54
2022-10-13T07:01:02.822Z,15.54
2022-10-13T07:03:29.907Z,15.53
2022-10-13T07:06:04.518Z,15.51
2022-10-13T07:08:32.774Z,15.49
2022-10-13T07:10:59.617Z,15.50
2022-10-13T07:13:26.451Z,15.51
2022-10-13T07:15:53.259Z,15.51
2022-10-13T07:18:20.171Z,15.50
2022-10-13T07:20:47.154Z,15.52
2022-10-13T07:23:13.918Z,15.53
2022-10-13T07:25:40.946Z,15.53
2022-10-13T07:28:07.715Z,15.53
2022-10-13T07:30:34.492Z,15.54
2022-10-13T07:33:01.508Z,15.53
2022-10-13T07:35:30.627Z,15.53
2022-10-13T07:37:57.881Z,15.55
2022-10-13T07:40:24.773Z,15.54
2022-10-13T07:42:51.536Z,15.53
2022-10-13T07:45:18.506Z,15.55
2022-10-13T07:47:45.266Z,15.55
2022-10-13T07:50:12.097Z,15.57
2022-10-13T07:52:39.343Z,15.58
2022-10-13T07:55:06.920Z,15.60
2022-10-13T07:57:33.713Z,15.63
2022-10-13T08:00:00.751Z,15.64
2022-10-13T08:02:27.577Z,15.65
2022-10-13T08:04:54.416Z,15.65
2022-10-13T08:07:21.385Z,15.66
2022-10-13T08:09:48.375Z,15.67
2022-10-13T08:12:15.327Z,15.68
2022-10-13T08:14:42.612Z,15.71
2022-10-13T08:17:09.659Z,15.73
2022-10-13T08:19:36.489Z,15.76
2022-10-13T08:22:05.543Z,15.80
2022-10-13T08:24:35.958Z,15.82
2022-10-13T08:27:02.727Z,15.85
2022-10-13T08:29:29.645Z,15.88
2022-10-13T08:31:56.659Z,15.89
2022-10-13T08:34:25.013Z,15.90
2022-10-13T08:36:54.781Z,15.91
2022-10-13T08:39:22.775Z,15.92
2022-10-13T08:41:50.195Z,15.92
2022-10-13T08:47:42.014Z,15.94
2022-10-13T08:50:25.313Z,15.91
2022-10-13T08:52:58.113Z,15.90
2022-10-13T08:55:37.761Z,15.89
2022-10-13T08:58:15.197Z,15.86
2022-10-13T09:00:42.646Z,15.85
2022-10-13T09:03:23.126Z,15.86
2022-10-13T09:06:00.666Z,15.86
2022-10-13T09:08:34.381Z,15.84
2022-10-13T09:11:03.085Z,15.83
2022-10-13T09:13:29.930Z,15.79
2022-10-13T09:15:58.314Z,15.77
2022-10-13T09:18:31.908Z,15.76
2022-10-13T09:21:19.631Z,15.75
2022-10-13T09:23:46.822Z,15.71
2022-10-13T09:26:38.017Z,15.68
2022-10-13T09:29:11.401Z,15.67
2022-10-13T09:31:38.664Z,15.68
2022-10-13T09:34:20.535Z,15.69
2022-10-13T09:37:02.241Z,15.67
2022-10-13T09:39:30.834Z,15.68
2022-10-13T09:42:22.001Z,15.65
2022-10-13T09:45:14.783Z,15.66
2022-10-13T09:47:49.007Z,15.60
2022-10-13T09:50:22.463Z,15.58
2022-10-13T09:52:49.551Z,15.55
2022-10-13T09:55:32.618Z,15.47
2022-10-13T09:58:06.009Z,15.43
2022-10-13T10:00:33.405Z,15.42
2022-10-13T10:03:15.895Z,15.40
2022-10-13T10:05:51.465Z,15.38
2022-10-13T10:09:05.256Z,15.37
2022-10-13T10:11:41.094Z,15.34
2022-10-13T10:14:26.605Z,15.34
2022-10-13T10:17:02.614Z,15.35
2022-10-13T10:19:35.335Z,15.37
2022-10-13T10:22:17.160Z,15.39
2022-10-13T10:25:01.526Z,15.39
2022-10-13T10:27:28.293Z,15.38
2022-10-13T10:30:02.631Z,15.37
2022-10-13T10:32:53.320Z,15.38
2022-10-13T10:35:32.287Z,15.38
2022-10-13T10:38:14.873Z,15.38
2022-10-13T10:41:06.265Z,15.40
2022-10-13T10:43:48.668Z,15.43
2022-10-13T10:46:23.328Z,15.44
2022-10-13T10:48:55.405Z,15.44
2022-10-13T10:51:28.407Z,15.43
2022-10-13T10:54:10.204Z,15.44
2022-10-13T10:56:44.876Z,15.43
2022-10-13T10:59:26.624Z,15.47
2022-10-13T11:02:08.738Z,15.48
2022-10-13T11:04:47.658Z,15.52
2022-10-13T11:07:23.547Z,15.52
2022-10-13T11:09:53.177Z,15.56
2022-10-13T11:12:20.218Z,15.55
2022-10-13T11:14:47.170Z,15.54
2022-10-13T11:17:34.374Z,15.56
2022-10-13T11:20:01.132Z,15.54
2022-10-13T11:22:31.834Z,15.53
2022-10-13T11:25:22.103Z,15.54
2022-10-13T11:27:48.907Z,15.56
2022-10-13T11:30:52.256Z,15.60
2022-10-13T11:33:38.728Z,15.67
2022-10-13T11:36:42.930Z,15.70
2022-10-13T11:39:28.402Z,15.73
2022-10-13T11:42:21.526Z,15.76
2022-10-13T11:45:18.817Z,15.78
2022-10-13T11:48:11.456Z,15.84
2022-10-13T11:50:55.686Z,15.88
2022-10-13T11:53:33.134Z,15.92
2022-10-13T11:56:03.759Z,15.99
2022-10-13T11:58:32.450Z,16.01
2022-10-13T12:01:13.100Z,16.06
2022-10-13T12:03:43.647Z,16.08
2022-10-13T12:06:35.780Z,16.11
2022-10-13T12:09:21.714Z,16.16
2022-10-13T12:12:00.220Z,16.19
2022-10-13T12:17:31.273Z,16.25
2022-10-13T12:20:00.615Z,16.29
2022-10-13T12:22:29.484Z,16.34
2022-10-13T12:25:00.590Z,16.37
2022-10-13T12:27:32.667Z,16.36
2022-10-13T12:30:03.113Z,16.36
2022-10-13T12:32:32.425Z,16.38
2022-10-13T12:35:20.401Z,16.38
2022-10-13T12:37:48.248Z,16.39
2022-10-13T12:40:25.682Z,16.41
2022-10-13T12:42:52.816Z,16.41
2022-10-13T12:45:22.887Z,16.42
2022-10-13T12:47:54.650Z,16.45
2022-10-13T12:50:30.523Z,16.44
2022-10-13T12:53:06.067Z,16.45
2022-10-13T12:55:33.517Z,16.43
2022-10-13T12:58:00.630Z,16.42
2022-10-13T13:00:35.493Z,16.43
2022-10-13T13:03:05.344Z,16.44
2022-10-13T13:05:35.197Z,16.43
2022-10-13T13:08:04.130Z,16.42
2022-10-13T13:10:31.480Z,16.41
2022-10-13T13:13:14.489Z,16.41
2022-10-13T13:15:41.687Z,16.41
2022-10-13T13:18:29.322Z,16.37
2022-10-13T13:20:56.497Z,16.36
2022-10-13T13:23:23.898Z,16.34
2022-10-13T13:26:13.910Z,16.36
2022-10-13T13:28:54.336Z,16.35
2022-10-13T13:31:23.368Z,16.34
2022-10-13T13:33:50.311Z,16.34
2022-10-13T13:36:21.629Z,16.37
2022-10-13T13:38:49.096Z,16.40
2022-10-13T13:41:17.171Z,16.44
2022-10-13T13:43:44.044Z,16.47
2022-10-13T13:46:23.566Z,16.51
2022-10-13T13:48:51.038Z,16.58
2022-10-13T13:51:18.223Z,16.62
2022-10-13T13:53:45.204Z,16.66
2022-10-13T13:56:20.493Z,16.72
2022-10-13T13:58:47.626Z,16.76
2022-10-13T14:01:14.782Z,16.79
2022-10-13T14:03:42.172Z,16.84
2022-10-13T14:06:09.391Z,16.88
2022-10-13T14:08:42.590Z,16.92
2022-10-13T14:11:10.283Z,16.95
2022-10-13T14:13:37.174Z,16.97
2022-10-13T14:16:04.578Z,16.99
2022-10-13T14:18:32.051Z,17.00
2022-10-13T14:20:59.099Z,16.98
2022-10-13T14:23:25.929Z,16.99
2022-10-13T14:25:52.668Z,17.00
2022-10-13T14:28:19.480Z,17.00
2022-10-13T14:30:46.299Z,17.03
2022-10-13T14:33:13.083Z,17.04
2022-10-13T14:35:39.834Z,17.04
2022-10-13T14:38:06.608Z,17.03
2022-10-13T14:40:33.347Z,17.05
2022-10-13T14:43:00.071Z,17.06
2022-10-13T14:45:26.836Z,17.08
2022-10-13T14:47:53.885Z,17.13
2022-10-13T14:50:20.742Z,17.14
2022-10-13T14:52:47.466Z,17.16
2022-10-13T14:55:14.317Z,17.21
2022-10-13T14:57:41.038Z,17.21
2022-10-13T15:00:08.462Z,17.24
2022-10-13T15:02:35.200Z,17.26
2022-10-13T15:05:01.990Z,17.27
2022-10-13T15:07:28.774Z,17.29
2022-10-13T15:10:10.716Z,17.30
2022-10-13T15:12:37.621Z,17.30
2022-10-13T15:15:05.064Z,17.28
2022-10-13T15:17:33.413Z,17.30
2022-10-13T15:20:00.710Z,17.30
2022-10-13T15:22:27.571Z,17.31
2022-10-13T15:24:54.335Z,17.32
2022-10-13T15:27:21.186Z,17.33
2022-10-13T15:29:47.934Z,17.35
2022-10-13T15:32:18.597Z,17.35
2022-10-13T15:34:46.166Z,17.36
2022-10-13T15:37:13.482Z,17.36
2022-10-13T15:39:40.381Z,17.38
2022-10-13T15:42:07.207Z,17.39
2022-10-13T15:44:51.305Z,17.39
2022-10-13T15:47:20.767Z,17.39
2022-10-13T15:49:47.495Z,17.39
2022-10-13T15:52:14.248Z,17.39
2022-10-13T15:54:41.123Z,17.39
2022-10-13T15:57:08.167Z,17.39
2022-10-13T15:59:35.017Z,17.40
2022-10-13T16:02:01.732Z,17.38
2022-10-13T16:04:29.759Z,17.36
2022-10-13T16:06:59.381Z,17.36
2022-10-13T16:09:26.197Z,17.35
2022-10-13T16:11:54.438Z,17.34
2022-10-13T16:14:21.414Z,17.35
2022-10-13T16:16:48.162Z,17.31
2022-10-13T16:19:15.270Z,17.31
2022-10-13T16:21:42.249Z,17.27
2022-10-13T16:24:09.036Z,17.25
2022-10-13T16:26:35.789Z,17.23
2022-10-13T16:29:07.021Z,17.21
2022-10-13T16:31:33.756Z,17.18
2022-10-13T16:34:00.586Z,17.16
2022-10-13T16:36:27.356Z,17.14
2022-10-13T16:38:55.106Z,17.10
2022-10-13T16:41:22.266Z,17.07
2022-10-13T16:43:49.220Z,17.04
2022-10-13T16:46:18.426Z,17.02
2022-10-13T16:48:46.333Z,17.00
2022-10-13T16:51:16.379Z,16.98
2022-10-13T16:53:43.413Z,16.97
2022-10-13T16:56:10.411Z,16.96
2022-10-13T16:58:37.198Z,16.94
2022-10-13T17:01:09.630Z,16.91
2022-10-13T17:03:37.684Z,16.91
2022-10-13T17:06:05.420Z,16.88
2022-10-13T17:08:32.766Z,16.86
2022-10-13T17:11:00.465Z,16.85
2022-10-13T17:13:27.293Z,16.82
2022-10-13T17:15:55.883Z,16.80
2022-10-13T17:18:23.324Z,16.77
2022-10-13T17:21:01.198Z,16.75
2022-10-13T17:23:29.351Z,16.76
2022-10-13T17:26:00.675Z,16.74
2022-10-13T17:28:27.536Z,16.73
2022-10-13T17:31:02.638Z,16.73
2022-10-13T17:33:32.796Z,16.72
2022-10-13T17:36:04.228Z,16.71
2022-10-13T17:38:31.575Z,16.69
2022-10-13T17:41:03.615Z,16.68
2022-10-13T17:43:31.125Z,16.66
2022-10-13T17:46:35.627Z,16.66
2022-10-13T17:49:12.562Z,16.66
2022-10-13T17:51:41.216Z,16.67
2022-10-13T17:54:14.429Z,16.68
2022-10-13T17:56:42.412Z,16.68
2022-10-13T17:59:10.104Z,16.70
2022-10-13T18:01:36.957Z,16.71
2022-10-13T18:04:11.364Z,16.72
2022-10-13T18:06:40.778Z,16.73
2022-10-13T18:09:14.448Z,16.73
2022-10-13T18:11:47.066Z,16.73
2022-10-13T18:14:17.182Z,16.73
2022-10-13T18:16:44.190Z,16.74
2022-10-13T18:19:12.408Z,16.73
2022-10-13T18:21:39.142Z,16.72
2022-10-13T18:24:06.226Z,16.72
2022-10-13T18:26:35.331Z,16.73
2022-10-13T18:29:08.160Z,16.71
2022-10-13T18:31:36.361Z,16.70
2022-10-13T18:34:12.861Z,16.67
2022-10-13T18:36:47.283Z,16.63
2022-10-13T18:39:16.918Z,16.63
2022-10-13T18:41:44.051Z,16.61
2022-10-13T18:44:11.344Z,16.58
2022-10-13T18:46:39.390Z,16.59
2022-10-13T18:49:14.520Z,16.57
2022-10-13T18:51:42.032Z,16.56
2022-10-13T18:54:10.149Z,16.55
2022-10-13T18:56:37.151Z,16.53
2022-10-13T18:59:07.931Z,16.51
2022-10-13T19:01:35.972Z,16.50
2022-10-13T19:04:03.243Z,16.49
2022-10-13T19:06:32.356Z,16.47
2022-10-13T19:09:09.789Z,16.46
2022-10-13T19:11:37.146Z,16.45
2022-10-13T19:14:05.892Z,16.43
2022-10-13T19:16:36.569Z,16.43
2022-10-13T19:19:13.358Z,16.43
2022-10-13T19:21:40.519Z,16.42
2022-10-13T19:24:08.259Z,16.40
2022-10-13T19:26:36.200Z,16.38
2022-10-13T19:29:10.302Z,16.37
2022-10-13T19:31:39.387Z,16.37
2022-10-13T19:34:06.239Z,16.34
2022-10-13T19:36:37.797Z,16.36
2022-10-13T19:39:22.329Z,16.34
2022-10-13T19:41:50.838Z,16.32
2022-10-13T19:44:19.740Z,16.30
2022-10-13T19:46:47.745Z,16.30
2022-10-13T19:49:16.875Z,16.26
2022-10-13T19:51:43.859Z,16.26
2022-10-13T19:54:11.455Z,16.25
2022-10-13T19:56:38.605Z,16.23
2022-10-13T19:59:07.610Z,16.22
2022-10-13T20:01:43.678Z,16.21
2022-10-13T20:04:11.197Z,16.17
2022-10-13T20:06:38.603Z,16.16
2022-10-13T20:09:10.749Z,16.15
2022-10-13T20:11:37.500Z,16.13
2022-10-13T20:14:04.462Z,16.11
2022-10-13T20:16:31.383Z,16.11
2022-10-13T20:19:00.653Z,16.09
2022-10-13T20:21:28.392Z,16.09
2022-10-13T20:23:56.211Z,16.09
2022-10-13T20:26:23.700Z,16.07
2022-10-13T20:28:51.781Z,16.07
2022-10-13T20:31:21.431Z,16.05
2022-10-13T20:33:49.856Z,16.04
2022-10-13T20:36:18.404Z,16.04
2022-10-13T20:38:45.346Z,16.02
2022-10-13T20:41:26.180Z,16.02
2022-10-13T20:43:54.880Z,15.99
2022-10-13T20:46:22.283Z,15.96
2022-10-13T20:51:36.412Z,15.92
2022-10-13T20:54:03.152Z,15.90
2022-10-13T20:56:30.007Z,15.88
2022-10-13T20:59:06.882Z,15.89
2022-10-13T21:01:34.696Z,15.88
2022-10-13T21:04:01.629Z,15.87
2022-10-13T21:06:28.512Z,15.86
2022-10-13T21:08:55.516Z,15.84
2022-10-13T21:11:23.684Z,15.83
2022-10-13T21:13:51.897Z,15.79
2022-10-13T21:16:23.275Z,15.79
2022-10-13T21:18:51.804Z,15.78
2022-10-13T21:21:21.321Z,15.76
2022-10-13T21:23:52.799Z,15.76
2022-10-13T21:26:22.162Z,15.74
2022-10-13T21:28:50.290Z,15.72
2022-10-13T21:31:18.863Z,15.71
2022-10-13T21:33:45.915Z,15.70
2022-10-13T21:36:15.228Z,15.68
2022-10-13T21:38:43.302Z,15.67
2022-10-13T21:41:12.827Z,15.66
2022-10-13T21:43:39.786Z,15.65
2022-10-13T21:46:09.670Z,15.62
2022-10-13T21:48:37.096Z,15.60
2022-10-13T21:51:12.533Z,15.61
2022-10-13T21:53:39.410Z,15.62
2022-10-13T21:56:07.384Z,15.63
2022-10-13T21:58:35.414Z,15.62
2022-10-13T22:01:02.934Z,15.61
2022-10-13T22:03:30.117Z,15.60
2022-10-13T22:05:56.972Z,15.59
2022-10-13T22:08:37.623Z,15.57
2022-10-13T22:11:06.453Z,15.57
2022-10-13T22:13:33.341Z,15.56
2022-10-13T22:16:19.058Z,15.56
2022-10-13T22:18:46.462Z,15.56
2022-10-13T22:21:17.476Z,15.55
2022-10-13T22:23:45.042Z,15.55
2022-10-13T22:26:12.761Z,15.55
2022-10-13T22:28:39.934Z,15.55
2022-10-13T22:31:09.878Z,15.56
2022-10-13T22:33:38.086Z,15.56
2022-10-13T22:36:09.636Z,15.56
2022-10-13T22:38:36.487Z,15.56
2022-10-13T22:41:05.462Z,15.54
2022-10-13T22:43:32.822Z,15.53
2022-10-13T22:45:59.693Z,15.51
2022-10-13T22:48:26.578Z,15.51
2022-10-13T22:50:53.622Z,15.51
2022-10-13T22:53:20.848Z,15.50
2022-10-13T22:55:50.669Z,15.50
2022-10-13T22:58:17.387Z,15.47
2022-10-13T23:00:44.225Z,15.45
2022-10-13T23:03:13.763Z,15.44
2022-10-13T23:05:47.486Z,15.44
2022-10-13T23:08:14.936Z,15.42
2022-10-13T23:10:41.713Z,15.42
2022-10-13T23:13:08.455Z,15.39
2022-10-13T23:15:38.370Z,15.37
2022-10-13T23:18:05.601Z,15.35
2022-10-13T23:20:32.370Z,15.33
2022-10-13T23:22:59.107Z,15.33
2022-10-13T23:25:25.828Z,15.33
2022-10-13T23:27:52.559Z,15.31
2022-10-13T23:30:19.345Z,15.30
2022-10-13T23:32:54.427Z,15.27
2022-10-13T23:35:21.258Z,15.27
2022-10-13T23:37:48.290Z,15.29
2022-10-13T23:40:15.331Z,15.28
2022-10-13T23:42:42.302Z,15.25
2022-10-13T23:45:09.488Z,15.26
2022-10-13T23:47:36.240Z,15.25
2022-10-13T23:50:03.483Z,15.23
2022-10-13T23:52:30.323Z,15.22
2022-10-13T23:54:57.012Z,15.21
2022-10-13T23:57:24.066Z,15.21
2022-10-13T23:59:50.903Z,15.19
